sensor_id;sensor_type;location;lat;lon;timestamp;P1;durP1;ratioP1;P2;durP2;ratioP2
30072;SDS011;16897;52.422;13.678;2022-07-19T00:01:20;3.50;;;3.10;;
30072;SDS011;16897;52.422;13.678;2022-07-19T00:05:22;5.82;;;2.88;;
30072;SDS011;16897;52.422;13.678;2022-07-19T00:09:24;3.00;;;2.50;;
30072;SDS011;16897;52.422;13.678;2022-07-19T00:13:27;3.60;;;3.03;;
30072;SDS011;16897;52.422;13.678;2022-07-19T00:17:29;4.15;;;2.58;;
30072;SDS011;16897;52.422;13.678;2022-07-19T00:21:30;3.80;;;3.03;;
30072;SDS011;16897;52.422;13.678;2022-07-19T00:25:32;3.83;;;2.97;;
30072;SDS011;16897;52.422;13.678;2022-07-19T00:29:33;3.53;;;2.83;;
30072;SDS011;16897;52.422;13.678;2022-07-19T00:33:35;3.65;;;2.97;;
30072;SDS011;16897;52.422;13.678;2022-07-19T00:37:37;3.22;;;2.78;;
30072;SDS011;16897;52.422;13.678;2022-07-19T00:41:40;3.92;;;2.80;;
30072;SDS011;16897;52.422;13.678;2022-07-19T00:45:43;3.92;;;2.80;;
30072;SDS011;16897;52.422;13.678;2022-07-19T00:49:45;3.40;;;2.67;;
30072;SDS011;16897;52.422;13.678;2022-07-19T00:53:47;4.90;;;2.85;;
30072;SDS011;16897;52.422;13.678;2022-07-19T00:57:49;3.90;;;3.33;;
30072;SDS011;16897;52.422;13.678;2022-07-19T01:01:51;3.28;;;2.85;;
30072;SDS011;16897;52.422;13.678;2022-07-19T01:05:53;3.85;;;3.03;;
30072;SDS011;16897;52.422;13.678;2022-07-19T01:09:55;3.85;;;3.13;;
30072;SDS011;16897;52.422;13.678;2022-07-19T01:13:57;3.75;;;3.13;;
30072;SDS011;16897;52.422;13.678;2022-07-19T01:17:59;3.33;;;3.03;;
30072;SDS011;16897;52.422;13.678;2022-07-19T01:22:01;5.03;;;3.83;;
30072;SDS011;16897;52.422;13.678;2022-07-19T01:26:03;3.75;;;2.55;;
30072;SDS011;16897;52.422;13.678;2022-07-19T01:30:26;3.90;;;2.95;;
30072;SDS011;16897;52.422;13.678;2022-07-19T01:34:27;4.75;;;3.17;;
30072;SDS011;16897;52.422;13.678;2022-07-19T01:38:29;3.53;;;2.83;;
30072;SDS011;16897;52.422;13.678;2022-07-19T01:42:31;4.40;;;2.83;;
30072;SDS011;16897;52.422;13.678;2022-07-19T01:46:32;3.30;;;3.00;;
30072;SDS011;16897;52.422;13.678;2022-07-19T01:50:34;3.45;;;2.83;;
30072;SDS011;16897;52.422;13.678;2022-07-19T01:54:36;4.13;;;2.70;;
30072;SDS011;16897;52.422;13.678;2022-07-19T01:58:38;4.90;;;2.75;;
30072;SDS011;16897;52.422;13.678;2022-07-19T02:02:39;4.55;;;3.15;;
30072;SDS011;16897;52.422;13.678;2022-07-19T02:06:41;3.08;;;2.70;;
30072;SDS011;16897;52.422;13.678;2022-07-19T02:10:43;4.00;;;3.22;;
30072;SDS011;16897;52.422;13.678;2022-07-19T02:14:45;4.55;;;3.25;;
30072;SDS011;16897;52.422;13.678;2022-07-19T02:18:46;2.88;;;2.60;;
30072;SDS011;16897;52.422;13.678;2022-07-19T02:22:48;3.95;;;3.10;;
30072;SDS011;16897;52.422;13.678;2022-07-19T02:26:51;3.22;;;2.92;;
30072;SDS011;16897;52.422;13.678;2022-07-19T02:30:52;5.57;;;3.20;;
30072;SDS011;16897;52.422;13.678;2022-07-19T02:34:54;4.57;;;3.28;;
30072;SDS011;16897;52.422;13.678;2022-07-19T02:38:56;3.28;;;2.97;;
30072;SDS011;16897;52.422;13.678;2022-07-19T02:42:59;3.30;;;2.80;;
30072;SDS011;16897;52.422;13.678;2022-07-19T02:47:01;4.03;;;2.95;;
30072;SDS011;16897;52.422;13.678;2022-07-19T02:51:03;3.58;;;2.83;;
30072;SDS011;16897;52.422;13.678;2022-07-19T02:55:05;3.75;;;2.92;;
30072;SDS011;16897;52.422;13.678;2022-07-19T02:59:07;3.50;;;2.92;;
30072;SDS011;16897;52.422;13.678;2022-07-19T03:03:09;4.00;;;3.05;;
30072;SDS011;16897;52.422;13.678;2022-07-19T03:07:29;3.17;;;2.75;;
30072;SDS011;16897;52.422;13.678;2022-07-19T03:11:32;6.15;;;2.72;;
30072;SDS011;16897;52.422;13.678;2022-07-19T03:15:34;3.72;;;2.88;;
30072;SDS011;16897;52.422;13.678;2022-07-19T03:19:36;3.80;;;3.13;;
30072;SDS011;16897;52.422;13.678;2022-07-19T03:23:38;8.60;;;3.03;;
30072;SDS011;16897;52.422;13.678;2022-07-19T03:27:41;3.78;;;3.25;;
30072;SDS011;16897;52.422;13.678;2022-07-19T03:31:42;4.32;;;3.25;;
30072;SDS011;16897;52.422;13.678;2022-07-19T03:35:44;4.65;;;3.10;;
30072;SDS011;16897;52.422;13.678;2022-07-19T03:39:46;5.05;;;3.00;;
30072;SDS011;16897;52.422;13.678;2022-07-19T03:43:48;4.55;;;2.90;;
30072;SDS011;16897;52.422;13.678;2022-07-19T03:47:50;5.82;;;3.13;;
30072;SDS011;16897;52.422;13.678;2022-07-19T03:51:52;5.10;;;3.28;;
30072;SDS011;16897;52.422;13.678;2022-07-19T03:55:54;4.75;;;2.55;;
30072;SDS011;16897;52.422;13.678;2022-07-19T03:59:55;3.70;;;2.58;;
30072;SDS011;16897;52.422;13.678;2022-07-19T04:03:58;4.53;;;3.38;;
30072;SDS011;16897;52.422;13.678;2022-07-19T04:08:00;4.25;;;3.03;;
30072;SDS011;16897;52.422;13.678;2022-07-19T04:12:02;6.10;;;3.45;;
30072;SDS011;16897;52.422;13.678;2022-07-19T04:16:04;5.18;;;3.13;;
30072;SDS011;16897;52.422;13.678;2022-07-19T04:20:06;5.13;;;2.80;;
30072;SDS011;16897;52.422;13.678;2022-07-19T04:24:08;3.85;;;2.83;;
30072;SDS011;16897;52.422;13.678;2022-07-19T04:28:10;3.45;;;2.90;;
30072;SDS011;16897;52.422;13.678;2022-07-19T04:32:12;4.47;;;2.80;;
30072;SDS011;16897;52.422;13.678;2022-07-19T04:36:13;6.53;;;3.42;;
30072;SDS011;16897;52.422;13.678;2022-07-19T04:40:15;3.78;;;3.40;;
30072;SDS011;16897;52.422;13.678;2022-07-19T04:44:16;3.55;;;3.10;;
30072;SDS011;16897;52.422;13.678;2022-07-19T04:48:18;5.53;;;3.53;;
30072;SDS011;16897;52.422;13.678;2022-07-19T04:52:20;4.28;;;3.30;;
30072;SDS011;16897;52.422;13.678;2022-07-19T04:56:21;3.17;;;2.88;;
30072;SDS011;16897;52.422;13.678;2022-07-19T05:00:23;6.05;;;3.20;;
30072;SDS011;16897;52.422;13.678;2022-07-19T05:04:25;4.35;;;3.08;;
30072;SDS011;16897;52.422;13.678;2022-07-19T05:08:27;3.08;;;2.65;;
30072;SDS011;16897;52.422;13.678;2022-07-19T05:12:29;4.00;;;3.03;;
30072;SDS011;16897;52.422;13.678;2022-07-19T05:16:31;3.55;;;3.25;;
30072;SDS011;16897;52.422;13.678;2022-07-19T05:20:33;3.20;;;2.90;;
30072;SDS011;16897;52.422;13.678;2022-07-19T05:24:35;3.90;;;3.17;;
30072;SDS011;16897;52.422;13.678;2022-07-19T05:28:37;4.50;;;3.33;;
30072;SDS011;16897;52.422;13.678;2022-07-19T05:32:38;3.58;;;3.17;;
30072;SDS011;16897;52.422;13.678;2022-07-19T05:36:40;19.40;;;4.20;;
30072;SDS011;16897;52.422;13.678;2022-07-19T05:40:42;3.63;;;2.92;;
30072;SDS011;16897;52.422;13.678;2022-07-19T05:44:45;4.95;;;2.88;;
30072;SDS011;16897;52.422;13.678;2022-07-19T05:48:47;5.90;;;3.28;;
30072;SDS011;16897;52.422;13.678;2022-07-19T05:52:49;4.95;;;2.58;;
30072;SDS011;16897;52.422;13.678;2022-07-19T05:56:51;9.13;;;3.05;;
30072;SDS011;16897;52.422;13.678;2022-07-19T06:00:53;2.88;;;2.33;;
30072;SDS011;16897;52.422;13.678;2022-07-19T06:05:14;4.70;;;2.20;;
30072;SDS011;16897;52.422;13.678;2022-07-19T06:09:15;3.08;;;2.80;;
30072;SDS011;16897;52.422;13.678;2022-07-19T06:13:17;3.08;;;2.78;;
30072;SDS011;16897;52.422;13.678;2022-07-19T06:17:19;3.08;;;2.25;;
30072;SDS011;16897;52.422;13.678;2022-07-19T06:21:21;3.53;;;2.38;;
30072;SDS011;16897;52.422;13.678;2022-07-19T06:25:23;7.45;;;2.53;;
30072;SDS011;16897;52.422;13.678;2022-07-19T06:29:25;4.57;;;2.60;;
30072;SDS011;16897;52.422;13.678;2022-07-19T06:33:26;3.38;;;2.22;;
30072;SDS011;16897;52.422;13.678;2022-07-19T06:37:28;4.03;;;2.30;;
30072;SDS011;16897;52.422;13.678;2022-07-19T06:41:30;2.50;;;2.30;;
30072;SDS011;16897;52.422;13.678;2022-07-19T06:45:31;4.20;;;2.25;;
30072;SDS011;16897;52.422;13.678;2022-07-19T06:49:33;11.95;;;2.83;;
30072;SDS011;16897;52.422;13.678;2022-07-19T06:53:35;3.15;;;2.78;;
30072;SDS011;16897;52.422;13.678;2022-07-19T06:57:37;3.42;;;2.90;;
30072;SDS011;16897;52.422;13.678;2022-07-19T07:01:39;4.55;;;3.10;;
30072;SDS011;16897;52.422;13.678;2022-07-19T07:05:41;3.63;;;3.33;;
30072;SDS011;16897;52.422;13.678;2022-07-19T07:09:43;3.42;;;2.97;;
30072;SDS011;16897;52.422;13.678;2022-07-19T07:13:44;2.90;;;2.70;;
30072;SDS011;16897;52.422;13.678;2022-07-19T07:17:46;2.90;;;2.50;;
30072;SDS011;16897;52.422;13.678;2022-07-19T07:21:48;2.63;;;2.40;;
30072;SDS011;16897;52.422;13.678;2022-07-19T07:25:51;5.93;;;2.80;;
30072;SDS011;16897;52.422;13.678;2022-07-19T07:29:54;2.55;;;2.28;;
30072;SDS011;16897;52.422;13.678;2022-07-19T07:33:56;6.88;;;3.00;;
30072;SDS011;16897;52.422;13.678;2022-07-19T07:37:57;3.50;;;2.65;;
30072;SDS011;16897;52.422;13.678;2022-07-19T07:41:59;2.53;;;2.33;;
30072;SDS011;16897;52.422;13.678;2022-07-19T07:46:01;2.75;;;2.30;;
30072;SDS011;16897;52.422;13.678;2022-07-19T07:50:04;8.63;;;2.47;;
30072;SDS011;16897;52.422;13.678;2022-07-19T07:54:07;4.63;;;1.83;;
30072;SDS011;16897;52.422;13.678;2022-07-19T07:58:09;2.92;;;2.03;;
30072;SDS011;16897;52.422;13.678;2022-07-19T08:02:12;3.22;;;2.45;;
30072;SDS011;16897;52.422;13.678;2022-07-19T08:06:14;2.13;;;1.92;;
30072;SDS011;16897;52.422;13.678;2022-07-19T08:10:16;9.00;;;1.90;;
30072;SDS011;16897;52.422;13.678;2022-07-19T08:14:18;2.03;;;1.55;;
30072;SDS011;16897;52.422;13.678;2022-07-19T08:18:19;4.55;;;2.10;;
30072;SDS011;16897;52.422;13.678;2022-07-19T08:22:21;6.57;;;2.13;;
30072;SDS011;16897;52.422;13.678;2022-07-19T08:26:22;3.80;;;1.77;;
30072;SDS011;16897;52.422;13.678;2022-07-19T08:30:24;2.00;;;1.90;;
30072;SDS011;16897;52.422;13.678;2022-07-19T08:34:26;5.28;;;2.55;;
30072;SDS011;16897;52.422;13.678;2022-07-19T08:38:28;1.85;;;1.75;;
30072;SDS011;16897;52.422;13.678;2022-07-19T08:42:30;1.70;;;1.58;;
30072;SDS011;16897;52.422;13.678;2022-07-19T08:46:32;3.00;;;1.63;;
30072;SDS011;16897;52.422;13.678;2022-07-19T08:50:34;11.52;;;2.70;;
30072;SDS011;16897;52.422;13.678;2022-07-19T08:54:36;2.55;;;1.30;;
30072;SDS011;16897;52.422;13.678;2022-07-19T08:58:38;3.30;;;1.70;;
30072;SDS011;16897;52.422;13.678;2022-07-19T09:02:40;2.15;;;1.60;;
30072;SDS011;16897;52.422;13.678;2022-07-19T09:07:03;3.72;;;1.35;;
30072;SDS011;16897;52.422;13.678;2022-07-19T09:11:04;1.98;;;1.17;;
30072;SDS011;16897;52.422;13.678;2022-07-19T09:15:15;10.85;;;1.80;;
30072;SDS011;16897;52.422;13.678;2022-07-19T09:19:17;2.55;;;1.52;;
30072;SDS011;16897;52.422;13.678;2022-07-19T09:23:20;3.78;;;1.27;;
30072;SDS011;16897;52.422;13.678;2022-07-19T09:27:22;2.35;;;1.38;;
30072;SDS011;16897;52.422;13.678;2022-07-19T09:31:26;1.65;;;1.40;;
30072;SDS011;16897;52.422;13.678;2022-07-19T09:35:38;4.63;;;1.55;;
30072;SDS011;16897;52.422;13.678;2022-07-19T09:39:50;2.03;;;1.70;;
30072;SDS011;16897;52.422;13.678;2022-07-19T09:43:59;1.73;;;1.60;;
30072;SDS011;16897;52.422;13.678;2022-07-19T09:48:04;1.83;;;1.30;;
30072;SDS011;16897;52.422;13.678;2022-07-19T09:52:05;2.42;;;1.50;;
30072;SDS011;16897;52.422;13.678;2022-07-19T09:56:08;1.67;;;1.40;;
30072;SDS011;16897;52.422;13.678;2022-07-19T10:00:12;3.60;;;1.35;;
30072;SDS011;16897;52.422;13.678;2022-07-19T10:04:17;1.50;;;1.40;;
30072;SDS011;16897;52.422;13.678;2022-07-19T10:08:22;1.70;;;1.60;;
30072;SDS011;16897;52.422;13.678;2022-07-19T10:12:24;6.53;;;1.52;;
30072;SDS011;16897;52.422;13.678;2022-07-19T10:16:43;2.03;;;1.30;;
30072;SDS011;16897;52.422;13.678;2022-07-19T10:20:54;2.25;;;1.80;;
30072;SDS011;16897;52.422;13.678;2022-07-19T10:24:56;3.55;;;1.80;;
30072;SDS011;16897;52.422;13.678;2022-07-19T10:29:15;1.58;;;1.48;;
30072;SDS011;16897;52.422;13.678;2022-07-19T10:33:25;1.13;;;1.10;;
30072;SDS011;16897;52.422;13.678;2022-07-19T10:37:42;1.27;;;1.17;;
30072;SDS011;16897;52.422;13.678;2022-07-19T10:42:07;1.48;;;1.38;;
30072;SDS011;16897;52.422;13.678;2022-07-19T10:46:14;1.98;;;1.50;;
30072;SDS011;16897;52.422;13.678;2022-07-19T10:50:16;3.60;;;1.50;;
30072;SDS011;16897;52.422;13.678;2022-07-19T10:54:22;2.47;;;1.40;;
30072;SDS011;16897;52.422;13.678;2022-07-19T10:58:24;2.83;;;1.30;;
30072;SDS011;16897;52.422;13.678;2022-07-19T11:02:47;2.50;;;1.25;;
30072;SDS011;16897;52.422;13.678;2022-07-19T11:06:52;1.45;;;1.08;;
30072;SDS011;16897;52.422;13.678;2022-07-19T11:11:12;2.30;;;1.40;;
30072;SDS011;16897;52.422;13.678;2022-07-19T11:15:18;1.55;;;1.45;;
30072;SDS011;16897;52.422;13.678;2022-07-19T11:19:20;1.58;;;1.25;;
30072;SDS011;16897;52.422;13.678;2022-07-19T11:23:22;1.80;;;1.40;;
30072;SDS011;16897;52.422;13.678;2022-07-19T11:27:23;3.60;;;1.38;;
30072;SDS011;16897;52.422;13.678;2022-07-19T11:31:25;1.42;;;1.25;;
30072;SDS011;16897;52.422;13.678;2022-07-19T11:35:28;3.17;;;1.20;;
30072;SDS011;16897;52.422;13.678;2022-07-19T11:39:46;2.15;;;1.05;;
30072;SDS011;16897;52.422;13.678;2022-07-19T11:43:52;1.50;;;1.40;;
30072;SDS011;16897;52.422;13.678;2022-07-19T11:48:22;1.45;;;1.30;;
30072;SDS011;16897;52.422;13.678;2022-07-19T11:52:26;5.50;;;1.13;;
30072;SDS011;16897;52.422;13.678;2022-07-19T11:56:29;2.08;;;1.38;;
30072;SDS011;16897;52.422;13.678;2022-07-19T12:00:33;1.35;;;1.25;;
30072;SDS011;16897;52.422;13.678;2022-07-19T12:04:36;2.75;;;1.20;;
30072;SDS011;16897;52.422;13.678;2022-07-19T12:08:42;9.27;;;2.17;;
30072;SDS011;16897;52.422;13.678;2022-07-19T12:12:44;2.45;;;1.42;;
30072;SDS011;16897;52.422;13.678;2022-07-19T12:16:46;1.70;;;1.60;;
30072;SDS011;16897;52.422;13.678;2022-07-19T12:25:37;1.85;;;1.70;;
30072;SDS011;16897;52.422;13.678;2022-07-19T12:29:46;2.85;;;1.90;;
30072;SDS011;16897;52.422;13.678;2022-07-19T12:33:57;2.65;;;1.58;;
30072;SDS011;16897;52.422;13.678;2022-07-19T12:38:03;1.70;;;1.55;;
30072;SDS011;16897;52.422;13.678;2022-07-19T12:42:06;2.28;;;1.90;;
30072;SDS011;16897;52.422;13.678;2022-07-19T12:46:07;2.35;;;1.70;;
30072;SDS011;16897;52.422;13.678;2022-07-19T12:50:17;1.70;;;1.60;;
30072;SDS011;16897;52.422;13.678;2022-07-19T12:54:23;1.67;;;1.58;;
30072;SDS011;16897;52.422;13.678;2022-07-19T12:58:25;2.70;;;1.73;;
30072;SDS011;16897;52.422;13.678;2022-07-19T13:02:46;2.28;;;2.08;;
30072;SDS011;16897;52.422;13.678;2022-07-19T13:06:50;4.20;;;1.73;;
30072;SDS011;16897;52.422;13.678;2022-07-19T13:10:53;2.10;;;1.75;;
30072;SDS011;16897;52.422;13.678;2022-07-19T13:14:56;2.08;;;1.67;;
30072;SDS011;16897;52.422;13.678;2022-07-19T13:18:57;3.85;;;1.67;;
30072;SDS011;16897;52.422;13.678;2022-07-19T13:22:59;2.20;;;2.00;;
30072;SDS011;16897;52.422;13.678;2022-07-19T13:27:01;2.08;;;1.65;;
30072;SDS011;16897;52.422;13.678;2022-07-19T13:31:05;1.90;;;1.80;;
